createdAt,value
2023-03-06T00:03:59.763Z,-4.00
2023-03-06T00:08:59.241Z,-4.00
2023-03-06T00:13:59.928Z,-4.08
2023-03-06T00:18:58.814Z,-4.10
2023-03-06T00:23:58.158Z,-4.10
2023-03-06T00:28:57.421Z,-4.12
2023-03-06T00:33:56.748Z,-4.20
2023-03-06T00:38:56.331Z,-4.20
2023-03-06T00:43:56.890Z,-4.30
2023-03-06T00:48:55.738Z,-4.30
2023-03-06T00:53:55.252Z,-4.30
2023-03-06T00:58:55.466Z,-4.30
2023-03-06T01:03:57.703Z,-4.30
2023-03-06T01:08:56.599Z,-4.34
2023-03-06T01:13:56.944Z,-4.40
2023-03-06T01:18:55.801Z,-4.40
2023-03-06T01:23:55.986Z,-4.40
2023-03-06T01:28:57.487Z,-4.40
2023-03-06T01:33:56.762Z,-4.48
2023-03-06T01:38:55.961Z,-4.50
2023-03-06T01:43:55.435Z,-4.50
2023-03-06T01:48:59.963Z,-4.50
2023-03-06T01:54:01.796Z,-4.50
2023-03-06T01:59:02.307Z,-4.50
2023-03-06T02:04:02.904Z,-4.52
2023-03-06T02:09:02.590Z,-4.58
2023-03-06T02:14:01.737Z,-4.54
2023-03-06T02:19:03.337Z,-4.58
2023-03-06T02:24:29.033Z,-4.60
2023-03-06T02:29:31.715Z,-4.60
2023-03-06T02:34:57.571Z,-4.60
2023-03-06T02:40:09.388Z,-4.60
2023-03-06T02:45:14.325Z,-4.62
2023-03-06T02:50:15.167Z,-4.66
2023-03-06T02:55:15.948Z,-4.64
2023-03-06T03:00:18.383Z,-4.60
2023-03-06T03:05:17.853Z,-4.60
2023-03-06T03:10:20.344Z,-4.60
2023-03-06T03:15:19.764Z,-4.60
2023-03-06T03:20:24.116Z,-4.66
2023-03-06T03:25:26.024Z,-4.70
2023-03-06T03:30:27.214Z,-4.70
2023-03-06T03:35:27.114Z,-4.70
2023-03-06T03:40:29.707Z,-4.70
2023-03-06T03:45:30.285Z,-4.70
2023-03-06T03:50:30.326Z,-4.70
2023-03-06T03:55:31.178Z,-4.70
2023-03-06T04:00:31.229Z,-4.74
2023-03-06T04:05:37.444Z,-4.80
2023-03-06T04:10:39.978Z,-4.80
2023-03-06T04:15:40.426Z,-4.80
2023-03-06T04:20:41.409Z,-4.84
2023-03-06T04:25:42.082Z,-4.80
2023-03-06T04:30:44.099Z,-4.88
2023-03-06T04:35:44.319Z,-4.90
2023-03-06T04:40:50.333Z,-4.90
2023-03-06T04:45:49.395Z,-4.90
2023-03-06T04:50:48.868Z,-4.90
2023-03-06T04:55:47.928Z,-4.92
2023-03-06T05:00:47.693Z,-5.00
2023-03-06T05:05:46.356Z,-5.00
2023-03-06T05:10:46.074Z,-5.02
2023-03-06T05:15:46.662Z,-5.10
2023-03-06T05:20:45.724Z,-5.10
2023-03-06T05:25:45.653Z,-5.10
2023-03-06T05:30:45.798Z,-5.10
2023-03-06T05:35:50.042Z,-5.10
2023-03-06T05:40:50.153Z,-5.12
2023-03-06T05:45:50.391Z,-5.10
2023-03-06T05:50:58.971Z,-5.10
2023-03-06T05:56:03.994Z,-5.00
2023-03-06T06:01:09.647Z,-4.90
2023-03-06T06:06:12.789Z,-4.80
2023-03-06T06:11:15.051Z,-4.70
2023-03-06T06:16:17.157Z,-4.52
2023-03-06T06:21:17.356Z,-4.40
2023-03-06T06:26:16.806Z,-4.20
2023-03-06T06:31:16.859Z,-4.00
2023-03-06T06:36:24.177Z,-3.80
2023-03-06T06:52:06.279Z,-3.22
2023-03-06T06:57:05.920Z,-3.10
2023-03-06T07:02:06.223Z,-2.90
2023-03-06T07:07:04.791Z,-2.80
2023-03-06T07:12:04.010Z,-2.58
2023-03-06T07:17:03.260Z,-2.40
2023-03-06T07:22:02.851Z,-2.18
2023-03-06T07:27:01.778Z,-1.90
2023-03-06T07:32:01.384Z,-1.70
2023-03-06T07:37:00.308Z,-1.50
2023-03-06T07:42:00.139Z,-1.30
2023-03-06T07:46:59.972Z,-1.10
2023-03-06T07:51:59.400Z,-0.90
2023-03-06T07:56:58.015Z,-0.70
2023-03-06T08:01:59.232Z,-0.50
2023-03-06T08:07:00.055Z,-0.40
2023-03-06T08:12:00.145Z,-0.20
2023-03-06T08:17:00.896Z,-0.10
2023-03-06T08:21:59.842Z,0.10
2023-03-06T08:26:59.001Z,0.10
2023-03-06T08:31:58.693Z,0.20
2023-03-06T08:36:57.718Z,0.20
2023-03-06T08:41:57.144Z,0.30
2023-03-06T08:46:56.569Z,0.40
2023-03-06T08:51:56.285Z,0.40
2023-03-06T08:56:55.555Z,0.50
2023-03-06T09:01:55.360Z,0.50
2023-03-06T09:06:55.658Z,0.70
2023-03-06T09:11:56.522Z,0.80
2023-03-06T09:16:56.089Z,1.00
2023-03-06T09:21:55.429Z,1.30
2023-03-06T09:26:56.158Z,1.70
2023-03-06T09:31:55.367Z,2.00
2023-03-06T09:36:57.062Z,2.20
2023-03-06T09:41:58.990Z,2.50
2023-03-06T09:47:16.935Z,2.80
2023-03-06T09:52:36.222Z,2.90
2023-03-06T09:57:39.565Z,2.80
2023-03-06T10:02:45.494Z,2.88
2023-03-06T10:07:54.414Z,3.00
2023-03-06T10:13:04.617Z,3.10
2023-03-06T10:18:07.427Z,3.20
2023-03-06T10:23:26.557Z,3.20
2023-03-06T10:28:36.975Z,3.20
2023-03-06T10:33:54.770Z,3.30
2023-03-06T10:38:54.605Z,3.10
2023-03-06T10:49:31.566Z,2.92
2023-03-06T10:54:32.595Z,3.00
2023-03-06T10:59:33.204Z,3.00
2023-03-06T11:04:35.988Z,2.90
2023-03-06T11:09:36.360Z,2.70
2023-03-06T11:14:36.311Z,2.60
2023-03-06T11:19:35.977Z,2.52
2023-03-06T11:24:43.846Z,2.60
2023-03-06T11:29:48.030Z,2.50
2023-03-06T11:34:53.766Z,2.40
2023-03-06T11:40:05.423Z,2.40
2023-03-06T11:45:26.039Z,2.60
2023-03-06T11:50:36.003Z,2.60
2023-03-06T11:56:23.008Z,2.50
2023-03-06T12:01:33.866Z,2.30
2023-03-06T12:06:49.777Z,2.24
2023-03-06T12:11:59.677Z,2.30
2023-03-06T12:17:32.979Z,2.30
2023-03-06T12:22:57.839Z,2.14
2023-03-06T12:28:24.691Z,1.90
2023-03-06T12:33:37.886Z,1.70
2023-03-06T12:39:17.780Z,1.50
2023-03-06T12:45:28.619Z,1.50
2023-03-06T12:50:31.519Z,1.40
2023-03-06T12:55:33.249Z,1.36
2023-03-06T13:01:07.586Z,1.40
2023-03-06T13:06:34.139Z,1.30
2023-03-06T13:12:00.190Z,1.22
2023-03-06T13:17:39.268Z,1.20
2023-03-06T13:22:38.655Z,1.20
2023-03-06T13:28:06.067Z,1.10
2023-03-06T13:33:26.346Z,1.10
2023-03-06T13:38:59.749Z,1.00
2023-03-06T13:44:02.206Z,1.00
2023-03-06T13:49:25.239Z,0.90
2023-03-06T13:54:48.243Z,0.90
2023-03-06T14:00:23.249Z,0.90
2023-03-06T14:05:23.135Z,0.90
2023-03-06T14:10:32.538Z,0.90
2023-03-06T14:15:43.430Z,0.90
2023-03-06T14:20:50.496Z,0.90
2023-03-06T14:25:56.223Z,0.90
2023-03-06T14:30:58.265Z,0.90
2023-03-06T14:36:09.714Z,0.90
2023-03-06T14:41:13.024Z,0.90
2023-03-06T14:46:24.659Z,1.00
2023-03-06T14:51:26.991Z,1.00
2023-03-06T14:56:29.288Z,1.00
2023-03-06T15:01:36.289Z,1.06
2023-03-06T15:06:43.595Z,1.10
2023-03-06T15:17:32.585Z,1.00
2023-03-06T15:22:37.982Z,1.08
2023-03-06T15:27:37.722Z,1.06
2023-03-06T15:32:42.567Z,1.10
2023-03-06T15:37:42.013Z,1.10
2023-03-06T15:42:43.628Z,1.10
2023-03-06T15:47:45.142Z,1.10
2023-03-06T15:52:44.993Z,1.10
2023-03-06T15:57:52.245Z,1.10
2023-03-06T16:02:54.102Z,1.00
2023-03-06T16:07:53.362Z,1.00
2023-03-06T16:12:57.039Z,1.00
2023-03-06T16:17:56.324Z,0.96
2023-03-06T16:22:56.093Z,0.90
2023-03-06T16:27:59.595Z,0.80
2023-03-06T16:32:59.223Z,0.70
2023-03-06T16:37:58.835Z,0.70
2023-03-06T16:42:59.133Z,0.70
2023-03-06T16:47:59.433Z,0.60
2023-03-06T16:53:01.033Z,0.60
2023-03-06T16:58:00.583Z,0.50
2023-03-06T17:03:00.869Z,0.50
2023-03-06T17:08:01.157Z,0.50
2023-03-06T17:13:03.321Z,0.50
2023-03-06T17:18:03.881Z,0.50
2023-03-06T17:23:04.889Z,0.50
2023-03-06T17:28:05.069Z,0.50
2023-03-06T17:33:07.990Z,0.50
2023-03-06T17:38:07.276Z,0.50
2023-03-06T17:43:06.119Z,0.50
2023-03-06T17:48:05.608Z,0.50
2023-03-06T17:53:06.036Z,0.48
2023-03-06T17:58:05.253Z,0.50
2023-03-06T18:03:05.106Z,0.44
2023-03-06T18:08:05.055Z,0.40
2023-03-06T18:13:03.664Z,0.40
2023-03-06T18:18:02.805Z,0.40
2023-03-06T18:23:03.841Z,0.40
2023-03-06T18:28:03.219Z,0.32
2023-03-06T18:33:02.546Z,0.30
2023-03-06T18:38:02.677Z,0.30
2023-03-06T18:43:02.036Z,0.30
2023-03-06T18:48:00.680Z,0.30
2023-03-06T18:52:59.481Z,0.30
2023-03-06T18:58:00.305Z,0.28
2023-03-06T19:02:59.714Z,0.20
2023-03-06T19:07:59.525Z,0.20
2023-03-06T19:12:59.057Z,0.26
2023-03-06T19:17:58.754Z,0.28
2023-03-06T19:22:58.535Z,0.24
2023-03-06T19:27:58.308Z,0.22
2023-03-06T19:32:58.437Z,0.30
2023-03-06T19:37:57.873Z,0.30
2023-03-06T19:43:00.908Z,0.30
2023-03-06T19:48:01.878Z,0.30
2023-03-06T19:53:02.646Z,0.30
2023-03-06T19:58:02.768Z,0.30
2023-03-06T20:03:02.882Z,0.30
2023-03-06T20:08:02.619Z,0.28
2023-03-06T20:13:02.376Z,0.22
2023-03-06T20:18:04.256Z,0.26
2023-03-06T20:23:04.812Z,0.20
2023-03-06T20:28:04.476Z,0.20
2023-03-06T20:33:04.011Z,0.20
2023-03-06T20:38:03.202Z,0.20
2023-03-06T20:43:02.247Z,0.10
2023-03-06T20:48:01.348Z,0.10
2023-03-06T20:53:02.366Z,0.10
2023-03-06T20:58:02.011Z,0.06
2023-03-06T21:03:01.369Z,0.00
2023-03-06T21:08:00.997Z,0.00
2023-03-06T21:13:00.526Z,0.00
2023-03-06T21:17:59.765Z,0.00
2023-03-06T21:23:02.073Z,0.00
2023-03-06T21:28:01.179Z,0.00
2023-03-06T21:33:00.779Z,-0.10
2023-03-06T21:37:59.929Z,-0.10
2023-03-06T21:42:59.550Z,-0.12
2023-03-06T21:47:59.299Z,-0.20
2023-03-06T21:53:00.878Z,-0.20
2023-03-06T21:58:00.358Z,-0.20
2023-03-06T22:02:59.919Z,-0.20
2023-03-06T22:07:59.261Z,-0.20
2023-03-06T22:12:58.765Z,-0.20
2023-03-06T22:17:58.020Z,-0.20
2023-03-06T22:22:56.890Z,-0.22
2023-03-06T22:27:55.923Z,-0.30
2023-03-06T22:32:57.059Z,-0.30
2023-03-06T22:37:56.500Z,-0.34
2023-03-06T22:42:56.008Z,-0.40
2023-03-06T22:48:02.384Z,-0.40
2023-03-06T22:53:08.625Z,-0.40
2023-03-06T22:58:07.884Z,-0.50
2023-03-06T23:03:07.463Z,-0.50
2023-03-06T23:08:07.097Z,-0.50
2023-03-06T23:13:05.608Z,-0.52
2023-03-06T23:18:24.049Z,-0.60
2023-03-06T23:23:44.316Z,-0.60
2023-03-06T23:28:44.530Z,-0.70
2023-03-06T23:33:44.266Z,-0.70
2023-03-06T23:38:44.312Z,-0.80
2023-03-06T23:43:44.073Z,-0.88
2023-03-06T23:48:46.153Z,-0.90
2023-03-06T23:53:45.306Z,-0.90
2023-03-06T23:58:45.672Z,-1.00
